sensor_id;sensor_type;location;lat;lon;timestamp;P1;durP1;ratioP1;P2;durP2;ratioP2
19569;SDS011;9931;51.458;7.256;2023-07-28T00:01:10;24.63;;;6.53;;
19569;SDS011;9931;51.458;7.256;2023-07-28T00:03:36;27.73;;;6.80;;
19569;SDS011;9931;51.458;7.256;2023-07-28T00:06:01;24.90;;;5.90;;
19569;SDS011;9931;51.458;7.256;2023-07-28T00:08:26;35.95;;;8.73;;
19569;SDS011;9931;51.458;7.256;2023-07-28T00:10:51;20.98;;;6.30;;
19569;SDS011;9931;51.458;7.256;2023-07-28T00:13:16;20.02;;;6.15;;
19569;SDS011;9931;51.458;7.256;2023-07-28T00:15:42;49.70;;;10.23;;
19569;SDS011;9931;51.458;7.256;2023-07-28T00:18:07;15.55;;;8.25;;
19569;SDS011;9931;51.458;7.256;2023-07-28T00:20:32;25.08;;;10.70;;
19569;SDS011;9931;51.458;7.256;2023-07-28T00:22:57;20.55;;;6.80;;
19569;SDS011;9931;51.458;7.256;2023-07-28T00:25:23;23.98;;;7.00;;
19569;SDS011;9931;51.458;7.256;2023-07-28T00:27:49;47.35;;;8.50;;
19569;SDS011;9931;51.458;7.256;2023-07-28T00:30:14;75.95;;;10.00;;
19569;SDS011;9931;51.458;7.256;2023-07-28T00:32:39;48.05;;;7.85;;
19569;SDS011;9931;51.458;7.256;2023-07-28T00:35:04;21.55;;;6.15;;
19569;SDS011;9931;51.458;7.256;2023-07-28T00:37:30;18.00;;;6.22;;
19569;SDS011;9931;51.458;7.256;2023-07-28T00:39:55;49.13;;;8.23;;
19569;SDS011;9931;51.458;7.256;2023-07-28T00:42:20;25.50;;;6.95;;
19569;SDS011;9931;51.458;7.256;2023-07-28T00:44:45;51.08;;;7.75;;
19569;SDS011;9931;51.458;7.256;2023-07-28T00:47:11;34.23;;;6.73;;
19569;SDS011;9931;51.458;7.256;2023-07-28T00:49:36;23.23;;;5.93;;
19569;SDS011;9931;51.458;7.256;2023-07-28T00:52:02;49.58;;;8.15;;
19569;SDS011;9931;51.458;7.256;2023-07-28T00:54:28;8.60;;;4.72;;
19569;SDS011;9931;51.458;7.256;2023-07-28T00:56:53;27.00;;;6.68;;
19569;SDS011;9931;51.458;7.256;2023-07-28T00:59:18;30.45;;;6.65;;
19569;SDS011;9931;51.458;7.256;2023-07-28T01:01:43;23.10;;;6.43;;
19569;SDS011;9931;51.458;7.256;2023-07-28T01:04:08;40.43;;;8.10;;
19569;SDS011;9931;51.458;7.256;2023-07-28T01:06:41;20.10;;;6.18;;
19569;SDS011;9931;51.458;7.256;2023-07-28T01:09:12;31.08;;;13.32;;
19569;SDS011;9931;51.458;7.256;2023-07-28T01:11:38;20.95;;;5.70;;
19569;SDS011;9931;51.458;7.256;2023-07-28T01:14:03;41.10;;;6.87;;
19569;SDS011;9931;51.458;7.256;2023-07-28T01:16:28;23.40;;;6.60;;
19569;SDS011;9931;51.458;7.256;2023-07-28T01:18:53;22.17;;;6.38;;
19569;SDS011;9931;51.458;7.256;2023-07-28T01:21:20;21.23;;;6.28;;
19569;SDS011;9931;51.458;7.256;2023-07-28T01:26:15;22.75;;;6.63;;
19569;SDS011;9931;51.458;7.256;2023-07-28T01:28:41;21.77;;;7.53;;
19569;SDS011;9931;51.458;7.256;2023-07-28T01:31:08;24.63;;;6.22;;
19569;SDS011;9931;51.458;7.256;2023-07-28T01:33:34;26.02;;;6.90;;
19569;SDS011;9931;51.458;7.256;2023-07-28T01:35:59;17.45;;;6.30;;
19569;SDS011;9931;51.458;7.256;2023-07-28T01:38:27;42.58;;;8.13;;
19569;SDS011;9931;51.458;7.256;2023-07-28T01:40:53;29.50;;;7.68;;
19569;SDS011;9931;51.458;7.256;2023-07-28T01:43:18;30.55;;;7.00;;
19569;SDS011;9931;51.458;7.256;2023-07-28T01:45:44;19.13;;;6.13;;
19569;SDS011;9931;51.458;7.256;2023-07-28T01:48:09;19.10;;;5.97;;
19569;SDS011;9931;51.458;7.256;2023-07-28T01:50:34;19.67;;;6.80;;
19569;SDS011;9931;51.458;7.256;2023-07-28T01:52:59;33.88;;;7.15;;
19569;SDS011;9931;51.458;7.256;2023-07-28T01:55:25;125.15;;;13.35;;
19569;SDS011;9931;51.458;7.256;2023-07-28T01:57:54;28.20;;;6.28;;
19569;SDS011;9931;51.458;7.256;2023-07-28T02:00:19;19.55;;;5.93;;
19569;SDS011;9931;51.458;7.256;2023-07-28T02:02:45;46.97;;;8.88;;
19569;SDS011;9931;51.458;7.256;2023-07-28T02:05:10;19.67;;;6.95;;
19569;SDS011;9931;51.458;7.256;2023-07-28T02:07:35;35.60;;;8.05;;
19569;SDS011;9931;51.458;7.256;2023-07-28T02:10:00;18.08;;;5.88;;
19569;SDS011;9931;51.458;7.256;2023-07-28T02:12:26;17.77;;;6.43;;
19569;SDS011;9931;51.458;7.256;2023-07-28T02:14:51;35.08;;;7.93;;
19569;SDS011;9931;51.458;7.256;2023-07-28T02:17:16;21.58;;;7.40;;
19569;SDS011;9931;51.458;7.256;2023-07-28T02:19:41;37.63;;;7.18;;
19569;SDS011;9931;51.458;7.256;2023-07-28T02:22:07;33.97;;;7.13;;
19569;SDS011;9931;51.458;7.256;2023-07-28T02:24:32;22.90;;;6.80;;
19569;SDS011;9931;51.458;7.256;2023-07-28T02:26:57;21.27;;;6.22;;
19569;SDS011;9931;51.458;7.256;2023-07-28T02:29:22;17.50;;;6.85;;
19569;SDS011;9931;51.458;7.256;2023-07-28T02:31:47;20.83;;;6.80;;
19569;SDS011;9931;51.458;7.256;2023-07-28T02:34:13;20.83;;;6.75;;
19569;SDS011;9931;51.458;7.256;2023-07-28T02:36:39;13.45;;;6.35;;
19569;SDS011;9931;51.458;7.256;2023-07-28T02:39:04;26.67;;;7.72;;
19569;SDS011;9931;51.458;7.256;2023-07-28T02:41:30;15.30;;;6.32;;
19569;SDS011;9931;51.458;7.256;2023-07-28T02:43:55;26.42;;;7.13;;
19569;SDS011;9931;51.458;7.256;2023-07-28T02:46:20;30.77;;;7.40;;
19569;SDS011;9931;51.458;7.256;2023-07-28T02:48:45;21.67;;;6.88;;
19569;SDS011;9931;51.458;7.256;2023-07-28T02:51:11;20.98;;;7.00;;
19569;SDS011;9931;51.458;7.256;2023-07-28T02:53:36;28.88;;;7.93;;
19569;SDS011;9931;51.458;7.256;2023-07-28T02:56:01;38.10;;;7.50;;
19569;SDS011;9931;51.458;7.256;2023-07-28T02:58:26;46.90;;;8.68;;
19569;SDS011;9931;51.458;7.256;2023-07-28T03:00:51;12.77;;;5.93;;
19569;SDS011;9931;51.458;7.256;2023-07-28T03:03:17;27.80;;;6.85;;
19569;SDS011;9931;51.458;7.256;2023-07-28T03:05:42;25.17;;;7.00;;
19569;SDS011;9931;51.458;7.256;2023-07-28T03:08:07;23.30;;;6.93;;
19569;SDS011;9931;51.458;7.256;2023-07-28T03:10:32;26.73;;;8.15;;
19569;SDS011;9931;51.458;7.256;2023-07-28T03:12:58;38.53;;;7.53;;
19569;SDS011;9931;51.458;7.256;2023-07-28T03:15:23;19.67;;;6.93;;
19569;SDS011;9931;51.458;7.256;2023-07-28T03:17:49;22.38;;;6.85;;
19569;SDS011;9931;51.458;7.256;2023-07-28T03:20:14;23.52;;;6.95;;
19569;SDS011;9931;51.458;7.256;2023-07-28T03:22:39;32.60;;;7.97;;
19569;SDS011;9931;51.458;7.256;2023-07-28T03:25:05;53.65;;;9.50;;
19569;SDS011;9931;51.458;7.256;2023-07-28T03:27:30;28.83;;;6.85;;
19569;SDS011;9931;51.458;7.256;2023-07-28T03:29:55;51.22;;;8.95;;
19569;SDS011;9931;51.458;7.256;2023-07-28T03:32:20;31.85;;;8.20;;
19569;SDS011;9931;51.458;7.256;2023-07-28T03:34:46;37.35;;;8.77;;
19569;SDS011;9931;51.458;7.256;2023-07-28T03:37:11;29.55;;;8.05;;
19569;SDS011;9931;51.458;7.256;2023-07-28T03:39:36;9.85;;;6.28;;
19569;SDS011;9931;51.458;7.256;2023-07-28T03:42:01;30.42;;;7.95;;
19569;SDS011;9931;51.458;7.256;2023-07-28T03:44:26;24.30;;;7.10;;
19569;SDS011;9931;51.458;7.256;2023-07-28T03:46:52;43.38;;;8.68;;
19569;SDS011;9931;51.458;7.256;2023-07-28T03:49:17;29.02;;;8.48;;
19569;SDS011;9931;51.458;7.256;2023-07-28T03:51:42;35.05;;;7.97;;
19569;SDS011;9931;51.458;7.256;2023-07-28T03:54:08;32.60;;;8.50;;
19569;SDS011;9931;51.458;7.256;2023-07-28T03:56:33;16.88;;;7.32;;
19569;SDS011;9931;51.458;7.256;2023-07-28T03:58:58;29.00;;;7.82;;
19569;SDS011;9931;51.458;7.256;2023-07-28T04:01:23;29.27;;;7.93;;
19569;SDS011;9931;51.458;7.256;2023-07-28T04:03:49;66.15;;;10.32;;
19569;SDS011;9931;51.458;7.256;2023-07-28T04:06:14;25.48;;;8.00;;
19569;SDS011;9931;51.458;7.256;2023-07-28T04:08:40;29.27;;;8.68;;
19569;SDS011;9931;51.458;7.256;2023-07-28T04:11:05;25.88;;;9.25;;
19569;SDS011;9931;51.458;7.256;2023-07-28T04:13:30;45.65;;;10.20;;
19569;SDS011;9931;51.458;7.256;2023-07-28T04:15:56;23.77;;;8.20;;
19569;SDS011;9931;51.458;7.256;2023-07-28T04:18:21;19.65;;;8.18;;
19569;SDS011;9931;51.458;7.256;2023-07-28T04:20:46;48.47;;;10.30;;
19569;SDS011;9931;51.458;7.256;2023-07-28T04:23:12;27.08;;;8.40;;
19569;SDS011;9931;51.458;7.256;2023-07-28T04:25:37;24.55;;;8.02;;
19569;SDS011;9931;51.458;7.256;2023-07-28T04:28:02;24.40;;;8.55;;
19569;SDS011;9931;51.458;7.256;2023-07-28T04:30:27;24.33;;;9.48;;
19569;SDS011;9931;51.458;7.256;2023-07-28T04:32:53;37.47;;;9.02;;
19569;SDS011;9931;51.458;7.256;2023-07-28T04:35:18;36.65;;;9.18;;
19569;SDS011;9931;51.458;7.256;2023-07-28T04:37:43;25.48;;;8.63;;
19569;SDS011;9931;51.458;7.256;2023-07-28T04:40:09;30.15;;;9.60;;
19569;SDS011;9931;51.458;7.256;2023-07-28T04:42:34;47.63;;;9.93;;
19569;SDS011;9931;51.458;7.256;2023-07-28T04:45:01;24.35;;;9.30;;
19569;SDS011;9931;51.458;7.256;2023-07-28T04:47:26;18.58;;;7.47;;
19569;SDS011;9931;51.458;7.256;2023-07-28T04:49:51;25.38;;;9.25;;
19569;SDS011;9931;51.458;7.256;2023-07-28T04:52:16;40.38;;;9.82;;
19569;SDS011;9931;51.458;7.256;2023-07-28T04:54:41;37.85;;;10.93;;
19569;SDS011;9931;51.458;7.256;2023-07-28T04:57:07;15.52;;;9.32;;
19569;SDS011;9931;51.458;7.256;2023-07-28T04:59:32;23.15;;;8.98;;
19569;SDS011;9931;51.458;7.256;2023-07-28T05:01:57;32.90;;;9.52;;
19569;SDS011;9931;51.458;7.256;2023-07-28T05:04:22;27.05;;;8.75;;
19569;SDS011;9931;51.458;7.256;2023-07-28T05:06:48;32.10;;;9.80;;
19569;SDS011;9931;51.458;7.256;2023-07-28T05:09:13;23.10;;;8.65;;
19569;SDS011;9931;51.458;7.256;2023-07-28T05:11:38;23.25;;;9.90;;
19569;SDS011;9931;51.458;7.256;2023-07-28T05:14:03;20.83;;;9.20;;
19569;SDS011;9931;51.458;7.256;2023-07-28T05:16:31;19.65;;;9.23;;
19569;SDS011;9931;51.458;7.256;2023-07-28T05:18:56;29.15;;;10.55;;
19569;SDS011;9931;51.458;7.256;2023-07-28T05:21:21;17.37;;;8.97;;
19569;SDS011;9931;51.458;7.256;2023-07-28T05:23:47;20.88;;;8.93;;
19569;SDS011;9931;51.458;7.256;2023-07-28T05:26:12;49.22;;;44.58;;
19569;SDS011;9931;51.458;7.256;2023-07-28T05:28:37;59.80;;;53.70;;
19569;SDS011;9931;51.458;7.256;2023-07-28T05:31:03;29.77;;;9.63;;
19569;SDS011;9931;51.458;7.256;2023-07-28T05:33:28;22.50;;;9.23;;
19569;SDS011;9931;51.458;7.256;2023-07-28T05:36:03;16.77;;;9.57;;
19569;SDS011;9931;51.458;7.256;2023-07-28T05:38:28;24.60;;;9.00;;
19569;SDS011;9931;51.458;7.256;2023-07-28T05:40:57;25.20;;;10.73;;
19569;SDS011;9931;51.458;7.256;2023-07-28T05:43:23;30.50;;;10.95;;
19569;SDS011;9931;51.458;7.256;2023-07-28T05:45:48;13.27;;;10.53;;
19569;SDS011;9931;51.458;7.256;2023-07-28T05:48:13;10.82;;;9.77;;
19569;SDS011;9931;51.458;7.256;2023-07-28T05:50:38;54.63;;;14.48;;
19569;SDS011;9931;51.458;7.256;2023-07-28T05:53:04;20.48;;;11.20;;
19569;SDS011;9931;51.458;7.256;2023-07-28T05:55:29;34.20;;;15.50;;
19569;SDS011;9931;51.458;7.256;2023-07-28T05:57:54;19.90;;;11.50;;
19569;SDS011;9931;51.458;7.256;2023-07-28T06:00:20;26.48;;;12.30;;
19569;SDS011;9931;51.458;7.256;2023-07-28T06:02:45;49.83;;;14.25;;
19569;SDS011;9931;51.458;7.256;2023-07-28T06:05:10;21.52;;;12.38;;
19569;SDS011;9931;51.458;7.256;2023-07-28T06:07:36;31.08;;;11.65;;
19569;SDS011;9931;51.458;7.256;2023-07-28T06:10:01;25.52;;;12.57;;
19569;SDS011;9931;51.458;7.256;2023-07-28T06:12:26;25.02;;;11.93;;
19569;SDS011;9931;51.458;7.256;2023-07-28T06:14:52;23.25;;;10.82;;
19569;SDS011;9931;51.458;7.256;2023-07-28T06:17:17;26.00;;;12.15;;
19569;SDS011;9931;51.458;7.256;2023-07-28T06:19:42;41.33;;;14.38;;
19569;SDS011;9931;51.458;7.256;2023-07-28T06:22:07;35.63;;;14.15;;
19569;SDS011;9931;51.458;7.256;2023-07-28T06:24:33;27.35;;;13.73;;
19569;SDS011;9931;51.458;7.256;2023-07-28T06:26:58;20.20;;;13.30;;
19569;SDS011;9931;51.458;7.256;2023-07-28T06:29:23;22.27;;;11.38;;
19569;SDS011;9931;51.458;7.256;2023-07-28T06:31:48;29.30;;;12.20;;
19569;SDS011;9931;51.458;7.256;2023-07-28T06:34:13;31.73;;;12.00;;
19569;SDS011;9931;51.458;7.256;2023-07-28T06:36:39;23.23;;;12.82;;
19569;SDS011;9931;51.458;7.256;2023-07-28T06:39:05;23.00;;;11.55;;
19569;SDS011;9931;51.458;7.256;2023-07-28T06:41:30;25.08;;;12.27;;
19569;SDS011;9931;51.458;7.256;2023-07-28T06:43:55;53.88;;;13.93;;
19569;SDS011;9931;51.458;7.256;2023-07-28T06:46:20;32.55;;;13.68;;
19569;SDS011;9931;51.458;7.256;2023-07-28T06:48:45;36.17;;;15.05;;
19569;SDS011;9931;51.458;7.256;2023-07-28T06:51:11;20.05;;;12.15;;
19569;SDS011;9931;51.458;7.256;2023-07-28T06:53:36;26.38;;;12.25;;
19569;SDS011;9931;51.458;7.256;2023-07-28T06:56:01;25.20;;;12.67;;
19569;SDS011;9931;51.458;7.256;2023-07-28T06:58:26;37.30;;;13.68;;
19569;SDS011;9931;51.458;7.256;2023-07-28T07:00:51;15.73;;;11.93;;
19569;SDS011;9931;51.458;7.256;2023-07-28T07:03:17;23.98;;;13.18;;
19569;SDS011;9931;51.458;7.256;2023-07-28T07:05:42;29.42;;;14.00;;
19569;SDS011;9931;51.458;7.256;2023-07-28T07:08:08;19.70;;;14.10;;
19569;SDS011;9931;51.458;7.256;2023-07-28T07:10:33;27.95;;;14.45;;
19569;SDS011;9931;51.458;7.256;2023-07-28T07:12:59;39.30;;;18.40;;
19569;SDS011;9931;51.458;7.256;2023-07-28T07:15:24;29.35;;;15.30;;
19569;SDS011;9931;51.458;7.256;2023-07-28T07:17:50;47.83;;;15.85;;
19569;SDS011;9931;51.458;7.256;2023-07-28T07:20:15;26.20;;;14.07;;
19569;SDS011;9931;51.458;7.256;2023-07-28T07:22:40;44.40;;;15.90;;
19569;SDS011;9931;51.458;7.256;2023-07-28T07:25:06;25.58;;;13.27;;
19569;SDS011;9931;51.458;7.256;2023-07-28T07:27:32;21.50;;;15.57;;
19569;SDS011;9931;51.458;7.256;2023-07-28T07:29:57;21.50;;;14.48;;
19569;SDS011;9931;51.458;7.256;2023-07-28T07:32:22;26.83;;;15.88;;
19569;SDS011;9931;51.458;7.256;2023-07-28T07:34:47;34.72;;;15.93;;
19569;SDS011;9931;51.458;7.256;2023-07-28T07:37:13;38.85;;;15.98;;
19569;SDS011;9931;51.458;7.256;2023-07-28T07:39:38;32.25;;;16.75;;
19569;SDS011;9931;51.458;7.256;2023-07-28T07:42:06;62.78;;;18.10;;
19569;SDS011;9931;51.458;7.256;2023-07-28T07:44:31;20.83;;;13.75;;
19569;SDS011;9931;51.458;7.256;2023-07-28T07:46:58;27.60;;;15.88;;
19569;SDS011;9931;51.458;7.256;2023-07-28T07:49:23;43.63;;;19.15;;
19569;SDS011;9931;51.458;7.256;2023-07-28T07:51:49;21.60;;;17.70;;
19569;SDS011;9931;51.458;7.256;2023-07-28T07:54:14;35.58;;;19.80;;
19569;SDS011;9931;51.458;7.256;2023-07-28T07:56:41;38.78;;;21.17;;
19569;SDS011;9931;51.458;7.256;2023-07-28T07:59:07;28.38;;;20.17;;
19569;SDS011;9931;51.458;7.256;2023-07-28T08:01:32;43.20;;;22.98;;
19569;SDS011;9931;51.458;7.256;2023-07-28T08:03:57;23.65;;;21.40;;
19569;SDS011;9931;51.458;7.256;2023-07-28T08:06:22;24.27;;;22.13;;
19569;SDS011;9931;51.458;7.256;2023-07-28T08:08:48;34.92;;;26.50;;
19569;SDS011;9931;51.458;7.256;2023-07-28T08:11:15;27.73;;;25.25;;
19569;SDS011;9931;51.458;7.256;2023-07-28T08:13:41;45.72;;;24.15;;
19569;SDS011;9931;51.458;7.256;2023-07-28T08:16:06;27.45;;;24.25;;
19569;SDS011;9931;51.458;7.256;2023-07-28T08:18:31;41.23;;;24.47;;
19569;SDS011;9931;51.458;7.256;2023-07-28T08:20:56;62.38;;;28.85;;
19569;SDS011;9931;51.458;7.256;2023-07-28T08:23:22;35.70;;;24.63;;
19569;SDS011;9931;51.458;7.256;2023-07-28T08:25:47;45.75;;;27.80;;
19569;SDS011;9931;51.458;7.256;2023-07-28T08:28:13;54.78;;;27.05;;
19569;SDS011;9931;51.458;7.256;2023-07-28T08:30:38;34.47;;;26.48;;
19569;SDS011;9931;51.458;7.256;2023-07-28T08:33:03;31.95;;;24.10;;
19569;SDS011;9931;51.458;7.256;2023-07-28T08:35:28;35.13;;;26.83;;
19569;SDS011;9931;51.458;7.256;2023-07-28T08:37:54;34.60;;;23.23;;
19569;SDS011;9931;51.458;7.256;2023-07-28T08:40:19;53.28;;;28.23;;
19569;SDS011;9931;51.458;7.256;2023-07-28T08:42:44;37.95;;;26.75;;
19569;SDS011;9931;51.458;7.256;2023-07-28T08:45:09;38.25;;;25.73;;
19569;SDS011;9931;51.458;7.256;2023-07-28T08:47:35;40.30;;;24.98;;
19569;SDS011;9931;51.458;7.256;2023-07-28T08:50:01;32.67;;;23.88;;
19569;SDS011;9931;51.458;7.256;2023-07-28T08:52:26;43.22;;;24.83;;
19569;SDS011;9931;51.458;7.256;2023-07-28T08:54:51;52.85;;;29.75;;
19569;SDS011;9931;51.458;7.256;2023-07-28T08:57:17;35.20;;;29.40;;
19569;SDS011;9931;51.458;7.256;2023-07-28T08:59:44;43.70;;;31.30;;
19569;SDS011;9931;51.458;7.256;2023-07-28T09:02:13;57.42;;;30.67;;
19569;SDS011;9931;51.458;7.256;2023-07-28T09:04:39;57.63;;;33.72;;
19569;SDS011;9931;51.458;7.256;2023-07-28T09:07:04;41.10;;;31.92;;
19569;SDS011;9931;51.458;7.256;2023-07-28T09:09:31;42.70;;;30.52;;
19569;SDS011;9931;51.458;7.256;2023-07-28T09:11:57;54.72;;;33.38;;
19569;SDS011;9931;51.458;7.256;2023-07-28T09:14:23;44.80;;;34.55;;
19569;SDS011;9931;51.458;7.256;2023-07-28T09:16:51;57.75;;;35.92;;
19569;SDS011;9931;51.458;7.256;2023-07-28T09:19:17;37.88;;;34.08;;
19569;SDS011;9931;51.458;7.256;2023-07-28T09:21:43;42.67;;;38.42;;
19569;SDS011;9931;51.458;7.256;2023-07-28T09:24:32;49.40;;;36.30;;
19569;SDS011;9931;51.458;7.256;2023-07-28T09:26:57;48.83;;;38.42;;
19569;SDS011;9931;51.458;7.256;2023-07-28T09:29:22;42.78;;;38.70;;
19569;SDS011;9931;51.458;7.256;2023-07-28T09:31:52;42.10;;;37.67;;
19569;SDS011;9931;51.458;7.256;2023-07-28T09:34:27;39.80;;;35.58;;
19569;SDS011;9931;51.458;7.256;2023-07-28T09:36:55;62.95;;;34.55;;
19569;SDS011;9931;51.458;7.256;2023-07-28T09:39:21;44.03;;;34.95;;
19569;SDS011;9931;51.458;7.256;2023-07-28T09:41:46;42.13;;;37.58;;
19569;SDS011;9931;51.458;7.256;2023-07-28T09:44:11;45.95;;;41.58;;
19569;SDS011;9931;51.458;7.256;2023-07-28T09:46:37;53.05;;;39.50;;
19569;SDS011;9931;51.458;7.256;2023-07-28T09:49:12;44.90;;;40.33;;
19569;SDS011;9931;51.458;7.256;2023-07-28T09:51:39;44.10;;;39.35;;
19569;SDS011;9931;51.458;7.256;2023-07-28T09:54:10;42.35;;;38.58;;
19569;SDS011;9931;51.458;7.256;2023-07-28T09:56:36;45.28;;;40.80;;
19569;SDS011;9931;51.458;7.256;2023-07-28T09:59:04;50.05;;;45.28;;
19569;SDS011;9931;51.458;7.256;2023-07-28T10:01:32;50.42;;;45.28;;
19569;SDS011;9931;51.458;7.256;2023-07-28T10:03:58;54.60;;;48.88;;
19569;SDS011;9931;51.458;7.256;2023-07-28T10:06:23;52.25;;;46.60;;
19569;SDS011;9931;51.458;7.256;2023-07-28T10:08:49;69.63;;;52.25;;
19569;SDS011;9931;51.458;7.256;2023-07-28T10:11:17;64.88;;;59.17;;
19569;SDS011;9931;51.458;7.256;2023-07-28T10:13:43;72.30;;;65.25;;
19569;SDS011;9931;51.458;7.256;2023-07-28T10:16:08;83.72;;;75.82;;
19569;SDS011;9931;51.458;7.256;2023-07-28T10:18:39;79.10;;;71.30;;
19569;SDS011;9931;51.458;7.256;2023-07-28T10:21:06;79.97;;;72.63;;
19569;SDS011;9931;51.458;7.256;2023-07-28T10:23:33;73.05;;;66.97;;
19569;SDS011;9931;51.458;7.256;2023-07-28T10:25:59;68.80;;;62.63;;
19569;SDS011;9931;51.458;7.256;2023-07-28T10:28:29;71.30;;;64.97;;
19569;SDS011;9931;51.458;7.256;2023-07-28T10:30:58;74.97;;;64.47;;
19569;SDS011;9931;51.458;7.256;2023-07-28T10:35:51;67.75;;;60.60;;
19569;SDS011;9931;51.458;7.256;2023-07-28T10:38:50;62.00;;;56.28;;
19569;SDS011;9931;51.458;7.256;2023-07-28T10:41:15;62.60;;;56.05;;
19569;SDS011;9931;51.458;7.256;2023-07-28T10:43:41;62.83;;;56.70;;
19569;SDS011;9931;51.458;7.256;2023-07-28T10:46:07;76.40;;;57.83;;
19569;SDS011;9931;51.458;7.256;2023-07-28T10:48:34;73.40;;;65.90;;
19569;SDS011;9931;51.458;7.256;2023-07-28T10:50:59;89.85;;;80.57;;
19569;SDS011;9931;51.458;7.256;2023-07-28T10:53:25;100.15;;;91.43;;
19569;SDS011;9931;51.458;7.256;2023-07-28T10:55:52;92.47;;;83.20;;
19569;SDS011;9931;51.458;7.256;2023-07-28T10:58:17;90.85;;;74.80;;
19569;SDS011;9931;51.458;7.256;2023-07-28T11:00:43;82.95;;;75.35;;
19569;SDS011;9931;51.458;7.256;2023-07-28T11:03:09;92.00;;;83.53;;
19569;SDS011;9931;51.458;7.256;2023-07-28T11:05:35;92.43;;;84.88;;
19569;SDS011;9931;51.458;7.256;2023-07-28T11:08:01;97.10;;;89.28;;
19569;SDS011;9931;51.458;7.256;2023-07-28T11:10:30;91.65;;;85.40;;
19569;SDS011;9931;51.458;7.256;2023-07-28T11:12:57;90.70;;;82.30;;
19569;SDS011;9931;51.458;7.256;2023-07-28T11:15:22;92.65;;;85.30;;
19569;SDS011;9931;51.458;7.256;2023-07-28T11:17:48;94.35;;;85.25;;
19569;SDS011;9931;51.458;7.256;2023-07-28T11:20:18;100.28;;;90.03;;
19569;SDS011;9931;51.458;7.256;2023-07-28T11:22:46;112.10;;;99.10;;
19569;SDS011;9931;51.458;7.256;2023-07-28T11:25:12;115.00;;;104.50;;
19569;SDS011;9931;51.458;7.256;2023-07-28T11:27:38;115.68;;;105.65;;
19569;SDS011;9931;51.458;7.256;2023-07-28T11:30:04;111.93;;;101.95;;
19569;SDS011;9931;51.458;7.256;2023-07-28T11:32:37;117.68;;;107.35;;
19569;SDS011;9931;51.458;7.256;2023-07-28T11:35:03;103.03;;;94.38;;
19569;SDS011;9931;51.458;7.256;2023-07-28T11:37:29;105.35;;;96.78;;
19569;SDS011;9931;51.458;7.256;2023-07-28T11:39:55;111.38;;;101.68;;
19569;SDS011;9931;51.458;7.256;2023-07-28T11:42:20;108.50;;;98.93;;
19569;SDS011;9931;51.458;7.256;2023-07-28T11:44:45;110.05;;;101.63;;
19569;SDS011;9931;51.458;7.256;2023-07-28T11:47:15;109.95;;;101.22;;
19569;SDS011;9931;51.458;7.256;2023-07-28T11:49:48;104.88;;;95.97;;
19569;SDS011;9931;51.458;7.256;2023-07-28T11:52:13;93.65;;;86.03;;
19569;SDS011;9931;51.458;7.256;2023-07-28T11:54:40;99.28;;;91.05;;
19569;SDS011;9931;51.458;7.256;2023-07-28T11:57:05;103.35;;;94.18;;
19569;SDS011;9931;51.458;7.256;2023-07-28T11:59:31;105.15;;;96.25;;
19569;SDS011;9931;51.458;7.256;2023-07-28T12:02:00;103.82;;;95.15;;
19569;SDS011;9931;51.458;7.256;2023-07-28T12:04:30;108.53;;;99.05;;
19569;SDS011;9931;51.458;7.256;2023-07-28T12:07:01;101.72;;;93.47;;
19569;SDS011;9931;51.458;7.256;2023-07-28T12:09:28;101.78;;;92.93;;
19569;SDS011;9931;51.458;7.256;2023-07-28T12:11:53;101.95;;;93.32;;
19569;SDS011;9931;51.458;7.256;2023-07-28T12:14:34;93.37;;;86.03;;
19569;SDS011;9931;51.458;7.256;2023-07-28T12:16:59;96.22;;;88.28;;
19569;SDS011;9931;51.458;7.256;2023-07-28T12:19:26;91.63;;;84.25;;
19569;SDS011;9931;51.458;7.256;2023-07-28T12:21:51;93.05;;;84.68;;
19569;SDS011;9931;51.458;7.256;2023-07-28T12:24:16;87.50;;;79.80;;
19569;SDS011;9931;51.458;7.256;2023-07-28T12:26:41;87.53;;;81.45;;
19569;SDS011;9931;51.458;7.256;2023-07-28T12:29:07;84.60;;;77.88;;
19569;SDS011;9931;51.458;7.256;2023-07-28T12:31:32;86.55;;;79.45;;
19569;SDS011;9931;51.458;7.256;2023-07-28T12:33:58;90.30;;;82.45;;
19569;SDS011;9931;51.458;7.256;2023-07-28T12:36:23;96.50;;;88.53;;
19569;SDS011;9931;51.458;7.256;2023-07-28T12:38:48;103.22;;;94.03;;
19569;SDS011;9931;51.458;7.256;2023-07-28T12:41:13;114.72;;;104.65;;
19569;SDS011;9931;51.458;7.256;2023-07-28T12:43:39;121.28;;;109.43;;
19569;SDS011;9931;51.458;7.256;2023-07-28T12:46:04;122.63;;;112.05;;
19569;SDS011;9931;51.458;7.256;2023-07-28T12:48:29;137.90;;;123.65;;
19569;SDS011;9931;51.458;7.256;2023-07-28T12:50:55;141.52;;;129.00;;
19569;SDS011;9931;51.458;7.256;2023-07-28T12:53:20;139.50;;;126.97;;
19569;SDS011;9931;51.458;7.256;2023-07-28T12:55:45;157.35;;;144.02;;
19569;SDS011;9931;51.458;7.256;2023-07-28T12:58:10;154.40;;;140.95;;
19569;SDS011;9931;51.458;7.256;2023-07-28T13:00:36;152.10;;;139.50;;
19569;SDS011;9931;51.458;7.256;2023-07-28T13:03:01;149.17;;;136.00;;
19569;SDS011;9931;51.458;7.256;2023-07-28T13:05:26;144.70;;;131.88;;
19569;SDS011;9931;51.458;7.256;2023-07-28T13:07:52;137.88;;;127.03;;
19569;SDS011;9931;51.458;7.256;2023-07-28T13:10:17;132.33;;;121.27;;
19569;SDS011;9931;51.458;7.256;2023-07-28T13:12:42;137.23;;;124.07;;
19569;SDS011;9931;51.458;7.256;2023-07-28T13:15:08;131.45;;;121.18;;
19569;SDS011;9931;51.458;7.256;2023-07-28T13:17:33;132.23;;;119.07;;
19569;SDS011;9931;51.458;7.256;2023-07-28T13:19:58;129.80;;;118.13;;
19569;SDS011;9931;51.458;7.256;2023-07-28T13:22:24;129.63;;;118.68;;
19569;SDS011;9931;51.458;7.256;2023-07-28T13:24:51;142.02;;;127.03;;
19569;SDS011;9931;51.458;7.256;2023-07-28T13:27:16;140.40;;;128.00;;
19569;SDS011;9931;51.458;7.256;2023-07-28T13:29:41;130.07;;;119.03;;
19569;SDS011;9931;51.458;7.256;2023-07-28T13:32:16;136.10;;;123.70;;
19569;SDS011;9931;51.458;7.256;2023-07-28T13:34:42;123.85;;;113.03;;
19569;SDS011;9931;51.458;7.256;2023-07-28T13:37:07;131.77;;;120.40;;
19569;SDS011;9931;51.458;7.256;2023-07-28T13:39:32;153.40;;;115.70;;
19569;SDS011;9931;51.458;7.256;2023-07-28T13:41:58;133.55;;;122.30;;
19569;SDS011;9931;51.458;7.256;2023-07-28T13:44:23;124.87;;;115.77;;
19569;SDS011;9931;51.458;7.256;2023-07-28T13:46:48;132.93;;;121.85;;
19569;SDS011;9931;51.458;7.256;2023-07-28T13:49:13;138.77;;;127.18;;
19569;SDS011;9931;51.458;7.256;2023-07-28T13:51:38;139.68;;;126.60;;
19569;SDS011;9931;51.458;7.256;2023-07-28T13:54:04;147.77;;;134.63;;
19569;SDS011;9931;51.458;7.256;2023-07-28T13:56:29;142.73;;;130.57;;
19569;SDS011;9931;51.458;7.256;2023-07-28T13:58:54;144.18;;;130.75;;
19569;SDS011;9931;51.458;7.256;2023-07-28T14:01:19;138.93;;;127.40;;
19569;SDS011;9931;51.458;7.256;2023-07-28T14:03:44;143.87;;;132.03;;
19569;SDS011;9931;51.458;7.256;2023-07-28T14:06:10;140.65;;;128.63;;
19569;SDS011;9931;51.458;7.256;2023-07-28T14:08:36;143.82;;;131.18;;
19569;SDS011;9931;51.458;7.256;2023-07-28T14:11:01;144.65;;;132.63;;
19569;SDS011;9931;51.458;7.256;2023-07-28T14:13:26;141.35;;;130.48;;
19569;SDS011;9931;51.458;7.256;2023-07-28T14:15:52;138.38;;;126.40;;
19569;SDS011;9931;51.458;7.256;2023-07-28T14:18:17;137.05;;;125.18;;
19569;SDS011;9931;51.458;7.256;2023-07-28T14:20:42;124.40;;;111.75;;
19569;SDS011;9931;51.458;7.256;2023-07-28T14:23:20;122.03;;;111.73;;
19569;SDS011;9931;51.458;7.256;2023-07-28T14:25:45;120.53;;;110.28;;
19569;SDS011;9931;51.458;7.256;2023-07-28T14:28:10;122.10;;;111.85;;
19569;SDS011;9931;51.458;7.256;2023-07-28T14:30:35;114.57;;;105.65;;
19569;SDS011;9931;51.458;7.256;2023-07-28T14:33:01;122.00;;;111.57;;